Time;durP1;ratioP1;P1;durP2;ratioP2;P2;SDS_P1;SDS_P2;PMS_P1;PMS_P2;Temp;Humidity;BMP_temperature;BMP_pressure;BME280_temperature;BME280_humidity;BME280_pressure;Samples;Min_cycle;Max_cycle;Signal;HPM_P1;HPM_P2
2024/01/27 00:00:24;;;;;;;8.20;1.50;;;4.50;99.90;;;;;;5020512;23;20182;-94
2024/01/27 00:02:25;;;;;;;1.83;1.30;;;4.40;99.90;;;;;;5020286;23;20530;-94
2024/01/27 00:04:33;;;;;;;18.57;2.17;;;4.10;99.90;;;;;;5020330;23;20238;-95
2024/01/27 00:06:41;;;;;;;6.70;1.80;;;3.90;99.90;;;;;;5022432;23;20174;-93
2024/01/27 00:08:42;;;;;;;10.50;1.40;;;3.80;99.90;;;;;;5023355;23;20238;-95
2024/01/27 00:10:45;;;;;;;3.33;1.57;;;4.00;99.90;;;;;;5022174;23;20163;-94
2024/01/27 00:12:46;;;;;;;6.13;1.30;;;3.90;99.90;;;;;;5022268;23;20677;-95
2024/01/27 00:14:47;;;;;;;3.03;1.60;;;4.00;99.90;;;;;;5022976;23;20605;-94
2024/01/27 00:16:48;;;;;;;3.97;1.23;;;4.00;99.90;;;;;;5048868;23;20189;-94
2024/01/27 00:19:04;;;;;;;8.07;2.13;;;4.10;99.90;;;;;;5022279;23;20159;-95
2024/01/27 00:21:08;;;;;;;11.70;2.93;;;4.10;99.90;;;;;;5022449;23;20162;-95
2024/01/27 00:23:09;;;;;;;10.07;2.30;;;3.90;99.90;;;;;;5022661;23;20685;-95
2024/01/27 00:25:10;;;;;;;7.57;1.93;;;3.70;99.90;;;;;;5046982;23;20154;-94
2024/01/27 00:27:16;;;;;;;5.90;2.13;;;3.60;99.90;;;;;;5023003;23;20203;-95
2024/01/27 00:29:25;;;;;;;9.63;2.10;;;3.50;99.90;;;;;;5024082;23;20242;-95
2024/01/27 00:31:26;;;;;;;5.47;1.67;;;3.50;99.90;;;;;;5022452;23;20159;-93
2024/01/27 00:33:32;;;;;;;4.77;2.30;;;3.60;99.90;;;;;;5023563;23;20205;-95
2024/01/27 00:35:35;;;;;;;9.07;2.00;;;3.80;99.90;;;;;;5022465;23;20166;-93
2024/01/27 00:37:36;;;;;;;3.00;2.00;;;3.80;99.90;;;;;;5045421;23;20201;-95
2024/01/27 00:39:40;;;;;;;6.87;1.83;;;3.70;99.90;;;;;;5022350;23;20154;-95
2024/01/27 00:41:51;;;;;;;19.27;2.17;;;3.50;99.90;;;;;;5022656;23;20530;-95
2024/01/27 00:43:57;;;;;;;4.70;2.23;;;3.30;99.90;;;;;;5023201;23;20158;-95
2024/01/27 00:45:58;;;;;;;7.70;2.73;;;3.20;99.90;;;;;;5045921;23;20609;-94
2024/01/27 00:47:59;;;;;;;2.87;1.27;;;3.20;99.90;;;;;;5045859;23;20154;-95
2024/01/27 00:50:00;;;;;;;6.20;1.80;;;3.10;99.90;;;;;;5022415;23;20159;-94
2024/01/27 00:52:01;;;;;;;4.73;2.07;;;3.20;99.90;;;;;;5022453;23;20217;-95
2024/01/27 00:54:02;;;;;;;5.30;2.27;;;3.30;99.90;;;;;;5046343;23;20644;-95
2024/01/27 00:56:06;;;;;;;1.93;1.20;;;3.30;99.90;;;;;;5045624;23;20241;-96
2024/01/27 00:58:07;;;;;;;4.80;1.70;;;3.10;99.90;;;;;;5021522;23;20191;-95
2024/01/27 01:00:10;;;;;;;3.17;1.80;;;3.00;99.90;;;;;;5021777;23;20155;-95
2024/01/27 01:02:19;;;;;;;6.23;1.83;;;3.00;99.90;;;;;;5022098;23;20155;-95
2024/01/27 01:04:22;;;;;;;4.43;1.90;;;3.10;99.90;;;;;;5023418;23;20155;-95
2024/01/27 01:06:23;;;;;;;4.60;1.20;;;3.10;99.90;;;;;;5021301;23;20200;-95
2024/01/27 01:08:24;;;;;;;7.03;2.23;;;3.00;99.90;;;;;;5021387;23;20214;-95
2024/01/27 01:13:06;;;;;;;10.27;2.37;;;3.00;99.90;;;;;;4993970;23;20154;-96
2024/01/27 01:15:09;;;;;;;3.47;1.40;;;3.20;99.90;;;;;;5002254;23;20175;-92
2024/01/27 01:17:10;;;;;;;6.63;1.77;;;3.30;99.90;;;;;;5021273;23;20638;-95
2024/01/27 01:19:11;;;;;;;16.50;2.17;;;3.10;99.90;;;;;;5021899;23;20155;-94
2024/01/27 01:21:12;;;;;;;4.37;1.60;;;3.00;99.90;;;;;;5021269;23;20188;-95
2024/01/27 01:23:13;;;;;;;2.47;1.23;;;2.90;99.90;;;;;;5021333;23;20558;-95
2024/01/27 01:25:20;;;;;;;8.37;1.70;;;2.90;99.90;;;;;;5021787;23;20147;-95
2024/01/27 01:27:21;;;;;;;9.77;1.77;;;2.90;99.90;;;;;;5023654;23;20175;-95
2024/01/27 01:29:22;;;;;;;7.13;2.27;;;2.90;99.90;;;;;;5022103;23;20205;-95
2024/01/27 01:31:23;;;;;;;8.50;1.60;;;2.90;99.90;;;;;;5045733;23;20192;-95
2024/01/27 01:33:24;;;;;;;3.47;1.50;;;2.90;99.90;;;;;;5021591;23;20151;-94
2024/01/27 01:35:25;;;;;;;1.40;0.83;;;2.80;99.90;;;;;;5045429;23;20174;-95
2024/01/27 01:37:31;;;;;;;5.77;2.07;;;2.90;99.90;;;;;;5021365;23;20230;-95
2024/01/27 01:39:32;;;;;;;5.57;2.63;;;2.80;99.90;;;;;;5045182;23;20153;-96
2024/01/27 01:41:33;;;;;;;8.60;2.23;;;2.80;99.90;;;;;;5046544;23;20158;-94
2024/01/27 01:43:37;;;;;;;9.57;2.30;;;2.80;99.90;;;;;;5021272;23;20595;-94
2024/01/27 01:45:56;;;;;;;13.83;2.97;;;2.80;99.90;;;;;;5021386;23;20633;-95
2024/01/27 01:47:57;;;;;;;4.27;1.77;;;2.70;99.90;;;;;;5021407;23;20147;-94
2024/01/27 01:49:58;;;;;;;6.83;1.60;;;2.60;99.90;;;;;;5021154;23;20182;-94
2024/01/27 01:51:59;;;;;;;3.73;1.93;;;2.60;99.90;;;;;;5021802;23;20155;-95
2024/01/27 01:54:00;;;;;;;6.93;2.23;;;2.70;99.90;;;;;;5045962;23;20206;-95
2024/01/27 01:56:02;;;;;;;4.27;1.60;;;2.70;99.90;;;;;;5020698;23;20155;-93
2024/01/27 01:58:06;;;;;;;6.70;2.00;;;2.70;99.90;;;;;;5021770;23;20198;-96
2024/01/27 02:00:10;;;;;;;10.93;1.63;;;2.70;99.90;;;;;;5021915;23;20510;-94
2024/01/27 02:02:21;;;;;;;5.07;1.30;;;2.60;99.90;;;;;;5021792;23;20694;-95
2024/01/27 02:04:22;;;;;;;3.17;1.50;;;2.50;99.90;;;;;;5021062;23;20158;-93
2024/01/27 02:06:23;;;;;;;3.30;1.87;;;2.50;99.90;;;;;;5044811;23;20178;-94
2024/01/27 02:08:24;;;;;;;11.87;1.90;;;2.50;99.90;;;;;;5021316;23;20155;-94
2024/01/27 02:10:27;;;;;;;11.20;2.23;;;2.50;99.90;;;;;;5020912;23;20155;-92
2024/01/27 02:12:31;;;;;;;3.87;1.37;;;2.60;99.90;;;;;;5021028;23;20173;-95
2024/01/27 02:14:33;;;;;;;5.97;2.10;;;2.70;99.90;;;;;;5045090;23;20235;-95
2024/01/27 02:16:34;;;;;;;13.47;1.93;;;2.70;99.90;;;;;;5023353;23;20175;-94
2024/01/27 02:19:00;;;;;;;10.97;2.23;;;2.80;99.90;;;;;;5028233;23;20163;-96
2024/01/27 02:21:11;;;;;;;3.77;2.03;;;2.90;99.90;;;;;;5043806;23;20194;-95
2024/01/27 02:23:17;;;;;;;4.43;1.13;;;3.00;99.90;;;;;;5023032;23;20162;-93
2024/01/27 02:25:24;;;;;;;8.33;2.23;;;3.00;99.90;;;;;;5027452;23;20182;-95
2024/01/27 02:27:36;;;;;;;8.43;2.30;;;3.10;99.90;;;;;;5024070;23;20178;-95
2024/01/27 02:29:39;;;;;;;5.10;1.57;;;3.10;99.90;;;;;;5021954;23;20154;-95
2024/01/27 02:31:48;;;;;;;8.40;1.77;;;3.00;99.90;;;;;;5024955;23;20155;-96
2024/01/27 02:33:50;;;;;;;7.97;2.80;;;2.90;99.90;;;;;;5045359;23;20154;-93
2024/01/27 02:35:51;;;;;;;4.83;1.50;;;2.80;99.90;;;;;;5021243;23;20165;-93
2024/01/27 02:37:51;;;;;;;5.33;1.83;;;2.60;99.90;;;;;;5021023;23;20222;-96
2024/01/27 02:39:57;;;;;;;3.67;1.87;;;2.50;99.90;;;;;;5020892;23;20586;-96
2024/01/27 02:41:58;;;;;;;3.20;1.50;;;2.50;99.90;;;;;;5021202;23;20185;-94
2024/01/27 02:46:43;;;;;;;4.70;1.73;;;2.60;99.90;;;;;;5038552;23;20174;-95
2024/01/27 02:48:45;;;;;;;8.73;2.10;;;2.60;99.90;;;;;;5047806;23;20154;-93
2024/01/27 02:53:24;;;;;;;13.93;1.43;;;2.70;99.90;;;;;;5047539;23;20168;-94
2024/01/27 02:55:26;;;;;;;5.57;1.20;;;2.60;99.90;;;;;;5023787;23;20151;-95
2024/01/27 02:57:54;;;;;;;4.13;2.07;;;2.50;99.90;;;;;;5023426;23;20202;-94
2024/01/27 03:00:06;;;;;;;1.67;1.10;;;2.50;99.90;;;;;;5024868;23;20155;-96
2024/01/27 03:02:10;;;;;;;12.67;2.00;;;2.40;99.90;;;;;;5026517;23;20158;-94
2024/01/27 03:04:39;;;;;;;9.50;2.67;;;2.60;99.90;;;;;;5001032;23;20238;-95
2024/01/27 03:06:45;;;;;;;6.73;2.13;;;2.80;99.90;;;;;;5022372;23;20170;-95
2024/01/27 03:08:49;;;;;;;6.03;1.53;;;2.80;99.90;;;;;;5045471;23;20629;-94
2024/01/27 03:10:57;;;;;;;8.70;1.80;;;2.70;99.90;;;;;;5020981;23;20151;-94
2024/01/27 03:12:58;;;;;;;5.17;2.20;;;2.50;99.90;;;;;;5020443;23;20162;-95
2024/01/27 03:15:01;;;;;;;6.53;1.23;;;2.30;99.90;;;;;;5021285;23;20186;-96
2024/01/27 03:17:03;;;;;;;2.83;1.70;;;2.30;99.90;;;;;;5020521;23;20202;-95
2024/01/27 03:19:04;;;;;;;4.10;1.93;;;2.20;99.90;;;;;;5021850;23;20238;-94
2024/01/27 03:21:08;;;;;;;4.83;1.93;;;2.20;99.90;;;;;;5021271;23;20150;-95
2024/01/27 03:23:09;;;;;;;8.90;1.50;;;2.20;99.90;;;;;;4998395;23;20190;-96
2024/01/27 03:25:13;;;;;;;9.07;1.43;;;2.20;99.90;;;;;;5022626;23;20199;-94
2024/01/27 03:27:17;;;;;;;5.70;2.00;;;2.10;99.90;;;;;;5021014;23;20174;-95
2024/01/27 03:29:21;;;;;;;2.73;1.53;;;2.20;99.90;;;;;;5020795;23;20182;-95
2024/01/27 03:31:22;;;;;;;2.70;1.20;;;2.10;99.90;;;;;;5020235;23;20158;-96
2024/01/27 03:33:23;;;;;;;2.50;1.67;;;2.20;99.90;;;;;;5044192;23;20165;-95
2024/01/27 03:35:24;;;;;;;2.20;1.10;;;2.20;99.90;;;;;;5022593;23;20221;-95
2024/01/27 03:37:25;;;;;;;2.10;1.20;;;2.20;99.90;;;;;;5022636;23;20205;-94
2024/01/27 03:39:26;;;;;;;5.23;1.90;;;2.10;99.90;;;;;;5021124;23;20169;-95
2024/01/27 03:41:29;;;;;;;6.50;1.97;;;2.10;99.90;;;;;;4997319;23;20164;-95
2024/01/27 03:43:31;;;;;;;5.63;1.50;;;2.10;99.90;;;;;;5020303;23;20155;-95
2024/01/27 03:45:31;;;;;;;3.43;1.70;;;2.10;99.90;;;;;;5020109;23;20191;-95
2024/01/27 03:47:32;;;;;;;4.17;1.27;;;2.10;99.90;;;;;;5043861;23;20174;-95
2024/01/27 03:49:33;;;;;;;2.77;1.67;;;2.00;99.90;;;;;;5020148;23;20155;-94
2024/01/27 03:51:34;;;;;;;8.30;2.17;;;2.00;99.90;;;;;;5020605;23;20677;-94
2024/01/27 03:53:36;;;;;;;1.97;0.83;;;2.10;99.90;;;;;;5020672;23;20151;-95
2024/01/27 03:55:37;;;;;;;13.47;1.30;;;2.10;99.90;;;;;;5044083;23;20498;-96
2024/01/27 03:57:38;;;;;;;2.57;1.43;;;2.00;99.90;;;;;;5043806;23;20186;-94
2024/01/27 03:59:42;;;;;;;2.83;1.20;;;2.00;99.90;;;;;;5043909;23;20185;-94
2024/01/27 04:01:43;;;;;;;2.93;1.60;;;2.00;99.90;;;;;;5019927;23;20607;-95
2024/01/27 04:03:44;;;;;;;4.63;1.17;;;1.90;99.90;;;;;;5043663;23;20155;-95
2024/01/27 04:05:45;;;;;;;2.47;1.33;;;2.00;99.90;;;;;;5020364;23;20614;-93
2024/01/27 04:07:46;;;;;;;5.57;1.77;;;2.00;99.90;;;;;;5020060;23;20638;-94
2024/01/27 04:09:47;;;;;;;4.73;1.60;;;2.00;99.90;;;;;;5021291;23;20157;-93
2024/01/27 04:11:57;;;;;;;6.53;1.87;;;2.10;99.90;;;;;;5021129;23;20509;-94
2024/01/27 04:13:59;;;;;;;4.93;2.17;;;2.20;99.90;;;;;;5022400;23;20557;-95
2024/01/27 04:16:02;;;;;;;1.50;1.07;;;2.40;99.90;;;;;;5021394;23;20214;-95
2024/01/27 04:18:11;;;;;;;3.73;1.53;;;2.50;99.90;;;;;;5020021;23;20585;-95
2024/01/27 04:20:22;;;;;;;6.03;1.00;;;2.60;99.90;;;;;;5045545;23;20154;-96
2024/01/27 04:22:23;;;;;;;4.00;1.40;;;2.40;99.90;;;;;;5020031;23;20490;-95
2024/01/27 04:24:24;;;;;;;7.83;1.47;;;2.40;99.90;;;;;;5020982;23;20178;-96
2024/01/27 04:26:25;;;;;;;3.17;1.40;;;2.30;99.90;;;;;;5019816;23;20679;-95
2024/01/27 04:28:25;;;;;;;5.83;1.50;;;2.30;99.90;;;;;;5068273;23;20154;-95
2024/01/27 04:30:26;;;;;;;9.27;1.43;;;2.20;99.90;;;;;;5044511;23;20166;-96
2024/01/27 04:32:27;;;;;;;2.30;1.40;;;2.30;99.90;;;;;;5020334;23;20191;-95
2024/01/27 04:34:28;;;;;;;4.43;1.93;;;2.20;99.90;;;;;;5020411;23;20158;-94
2024/01/27 04:36:31;;;;;;;4.83;1.40;;;2.20;99.90;;;;;;5020209;23;20183;-96
2024/01/27 04:38:35;;;;;;;5.77;1.73;;;2.20;99.90;;;;;;5044189;23;20214;-94
2024/01/27 04:40:40;;;;;;;10.10;2.77;;;2.20;99.90;;;;;;5020469;23;20232;-94
2024/01/27 04:42:42;;;;;;;1.97;1.27;;;2.20;99.90;;;;;;5020827;23;20195;-95
2024/01/27 04:44:43;;;;;;;3.00;1.53;;;2.20;99.90;;;;;;5021035;23;20657;-94
2024/01/27 04:46:44;;;;;;;7.20;1.63;;;2.20;99.90;;;;;;5020182;23;20230;-95
2024/01/27 04:48:47;;;;;;;3.03;0.87;;;2.20;99.90;;;;;;5020519;23;20163;-95
2024/01/27 04:50:50;;;;;;;7.73;2.30;;;2.20;99.90;;;;;;5044420;23;20198;-95
2024/01/27 04:52:54;;;;;;;7.40;1.23;;;2.20;99.90;;;;;;5021065;23;20162;-95
2024/01/27 04:55:00;;;;;;;3.03;1.63;;;2.10;99.90;;;;;;5022526;23;20187;-92
2024/01/27 04:57:06;;;;;;;4.43;1.90;;;2.10;99.90;;;;;;5023574;23;20513;-95
2024/01/27 04:59:07;;;;;;;4.63;1.30;;;2.00;99.90;;;;;;5022001;23;20151;-95
2024/01/27 05:01:08;;;;;;;0.90;0.70;;;2.00;99.90;;;;;;5022076;23;20688;-95
2024/01/27 05:03:13;;;;;;;6.53;1.73;;;2.00;99.90;;;;;;5021154;23;20147;-93
2024/01/27 05:05:16;;;;;;;2.83;1.00;;;1.90;99.90;;;;;;5045418;23;20178;-95
2024/01/27 05:07:17;;;;;;;3.30;1.43;;;2.00;99.90;;;;;;5045804;23;20221;-95
2024/01/27 05:09:21;;;;;;;4.53;1.90;;;1.90;99.90;;;;;;5045545;23;20158;-95
2024/01/27 05:11:32;;;;;;;3.53;1.20;;;1.90;99.90;;;;;;5021624;23;20155;-94
2024/01/27 05:13:33;;;;;;;2.03;0.83;;;1.80;99.90;;;;;;5045642;23;20161;-95
2024/01/27 05:15:37;;;;;;;4.50;1.53;;;1.80;99.90;;;;;;5021735;23;20171;-95
2024/01/27 05:17:49;;;;;;;2.43;0.90;;;1.80;99.90;;;;;;5046731;23;20209;-94
2024/01/27 05:19:51;;;;;;;6.90;1.67;;;1.70;99.90;;;;;;5045096;23;20222;-95
2024/01/27 05:21:52;;;;;;;3.20;1.50;;;1.80;99.90;;;;;;5045240;23;20176;-94
2024/01/27 05:23:55;;;;;;;9.07;1.57;;;1.80;99.90;;;;;;5021686;23;20202;-94
2024/01/27 05:25:58;;;;;;;7.30;1.47;;;1.80;99.90;;;;;;5021478;23;20158;-95
2024/01/27 05:27:59;;;;;;;8.50;1.53;;;1.70;99.90;;;;;;5021315;23;20614;-94
2024/01/27 05:30:00;;;;;;;15.43;1.60;;;1.80;99.90;;;;;;5045944;23;20233;-96
2024/01/27 05:32:11;;;;;;;5.07;1.60;;;1.90;99.90;;;;;;4998844;23;20615;-95
2024/01/27 05:34:12;;;;;;;8.17;1.57;;;1.80;99.90;;;;;;5021376;23;20190;-95
2024/01/27 05:36:13;;;;;;;4.60;1.67;;;1.90;99.90;;;;;;5021250;23;20656;-94
2024/01/27 05:38:14;;;;;;;4.50;1.93;;;1.90;99.90;;;;;;5021218;23;20198;-94
2024/01/27 05:40:16;;;;;;;2.23;1.27;;;1.90;99.90;;;;;;5021320;23;20491;-94
2024/01/27 05:42:16;;;;;;;4.63;1.23;;;1.80;99.90;;;;;;5044712;23;20169;-94
2024/01/27 05:44:17;;;;;;;3.90;1.47;;;1.80;99.90;;;;;;5044927;23;20158;-94
2024/01/27 05:46:18;;;;;;;3.13;1.80;;;1.80;99.90;;;;;;5020892;23;20623;-95
2024/01/27 05:48:19;;;;;;;5.70;2.37;;;1.80;99.90;;;;;;5044691;23;20173;-94
2024/01/27 05:50:22;;;;;;;12.57;2.23;;;1.70;99.90;;;;;;5021838;23;20175;-95
2024/01/27 05:52:25;;;;;;;11.13;1.50;;;1.80;99.90;;;;;;5021103;23;20182;-94
2024/01/27 05:54:35;;;;;;;3.60;1.43;;;1.80;99.90;;;;;;5022898;23;20163;-95
2024/01/27 05:56:38;;;;;;;2.50;1.33;;;1.80;99.90;;;;;;5021724;23;20206;-96
2024/01/27 05:58:39;;;;;;;8.33;1.53;;;1.80;99.90;;;;;;5022679;23;20194;-94
2024/01/27 06:00:42;;;;;;;12.50;2.00;;;1.80;99.90;;;;;;5024411;23;20147;-94
2024/01/27 06:02:58;;;;;;;6.80;2.03;;;1.80;99.90;;;;;;5022194;23;20230;-95
2024/01/27 06:05:15;;;;;;;11.13;1.83;;;1.70;99.90;;;;;;5021950;23;20151;-95
2024/01/27 06:07:22;;;;;;;2.50;1.50;;;1.70;99.90;;;;;;5021727;23;20716;-96
2024/01/27 06:09:43;;;;;;;7.77;2.50;;;1.70;99.90;;;;;;5048549;23;20143;-96
2024/01/27 06:11:57;;;;;;;11.80;2.43;;;1.70;99.90;;;;;;5023951;23;20163;-96
2024/01/27 06:14:00;;;;;;;3.77;1.93;;;1.70;99.90;;;;;;5026098;23;20155;-94
2024/01/27 06:16:08;;;;;;;13.47;2.07;;;1.60;99.90;;;;;;5030212;23;20178;-96
2024/01/27 06:18:17;;;;;;;4.03;1.60;;;1.60;99.90;;;;;;5050265;23;20194;-95
2024/01/27 06:20:18;;;;;;;5.10;1.40;;;1.60;99.90;;;;;;5025079;23;20176;-95
2024/01/27 06:22:19;;;;;;;3.93;2.13;;;1.70;99.90;;;;;;5026168;23;20230;-94
2024/01/27 06:24:20;;;;;;;13.77;1.73;;;1.70;99.90;;;;;;5024309;23;20161;-96
2024/01/27 06:26:50;;;;;;;3.10;1.30;;;1.60;99.90;;;;;;5026395;23;20175;-95
2024/01/27 06:29:21;;;;;;;10.90;2.30;;;1.50;99.90;;;;;;5038921;23;20198;-95
2024/01/27 06:31:27;;;;;;;5.23;1.20;;;1.50;99.90;;;;;;5022136;23;20212;-95
2024/01/27 06:33:28;;;;;;;3.73;2.03;;;1.50;99.90;;;;;;5024677;23;20183;-96
2024/01/27 06:35:29;;;;;;;1.90;1.60;;;1.40;99.90;;;;;;5023074;23;20187;-95
2024/01/27 06:37:36;;;;;;;8.23;1.00;;;1.70;99.90;;;;;;5023103;23;20648;-96
2024/01/27 06:39:37;;;;;;;3.93;1.20;;;1.60;99.90;;;;;;5022493;23;20697;-93
2024/01/27 06:41:38;;;;;;;2.20;1.57;;;1.50;99.90;;;;;;5046018;23;20154;-94
2024/01/27 06:43:39;;;;;;;6.03;2.37;;;1.40;99.90;;;;;;5024997;23;20219;-95
2024/01/27 06:46:02;;;;;;;2.43;1.47;;;1.30;99.90;;;;;;5026475;23;20155;-96
2024/01/27 06:48:29;;;;;;;2.00;1.13;;;1.40;99.90;;;;;;5040646;23;20194;-92
2024/01/27 06:50:35;;;;;;;3.27;1.70;;;1.50;99.90;;;;;;5021939;23;20221;-96
2024/01/27 06:52:52;;;;;;;3.93;1.57;;;1.50;99.90;;;;;;5025449;23;20178;-95
2024/01/27 06:54:58;;;;;;;3.33;1.60;;;1.60;99.90;;;;;;5020481;23;20534;-96
2024/01/27 06:57:40;;;;;;;5.70;2.23;;;1.50;99.90;;;;;;5050956;23;20178;-94
2024/01/27 06:59:59;;;;;;;1.73;1.33;;;1.70;99.90;;;;;;5046821;23;20158;-95
2024/01/27 07:02:13;;;;;;;3.30;1.57;;;1.70;99.90;;;;;;5046521;23;20185;-96
2024/01/27 07:04:15;;;;;;;3.27;1.50;;;1.60;99.90;;;;;;5021904;23;20157;-95
2024/01/27 07:06:16;;;;;;;11.27;2.50;;;1.50;99.90;;;;;;5021479;23;20181;-95
2024/01/27 07:08:17;;;;;;;3.47;1.07;;;1.50;99.90;;;;;;5045992;23;20158;-93
2024/01/27 07:10:18;;;;;;;2.23;1.17;;;1.50;99.90;;;;;;5022345;23;20503;-93
2024/01/27 07:12:22;;;;;;;6.23;2.57;;;1.50;99.90;;;;;;5021717;23;20170;-95
2024/01/27 07:14:27;;;;;;;10.60;3.17;;;1.60;99.90;;;;;;5023478;23;20242;-93
2024/01/27 07:16:28;;;;;;;5.17;2.10;;;1.60;99.90;;;;;;5048918;23;20178;-96
2024/01/27 07:18:29;;;;;;;5.70;2.50;;;1.60;99.90;;;;;;5022789;23;20683;-94
2024/01/27 07:20:32;;;;;;;7.43;1.80;;;1.60;99.90;;;;;;5021600;23;20175;-94
2024/01/27 07:22:33;;;;;;;3.13;2.00;;;1.70;99.90;;;;;;5021712;23;20175;-93
2024/01/27 07:24:37;;;;;;;7.70;1.70;;;1.70;99.90;;;;;;5021923;23;20202;-96
2024/01/27 07:26:41;;;;;;;9.00;1.90;;;1.70;99.90;;;;;;5022142;23;20179;-96
2024/01/27 07:28:45;;;;;;;12.43;2.43;;;1.70;99.90;;;;;;5022325;23;20235;-96
2024/01/27 07:30:51;;;;;;;4.83;2.07;;;1.70;99.90;;;;;;5021884;23;20158;-94
2024/01/27 07:32:54;;;;;;;15.00;3.57;;;1.60;99.90;;;;;;5045542;23;20154;-96
2024/01/27 07:34:55;;;;;;;4.47;2.87;;;1.60;99.90;;;;;;5022149;23;20190;-96
2024/01/27 07:37:07;;;;;;;3.13;1.63;;;1.60;99.90;;;;;;5022564;23;20175;-96
2024/01/27 07:39:08;;;;;;;14.27;2.30;;;1.70;99.90;;;;;;5024093;23;20189;-93
2024/01/27 07:41:12;;;;;;;1.57;1.37;;;1.70;99.90;;;;;;5024159;23;20154;-94
2024/01/27 07:43:12;;;;;;;11.40;1.90;;;1.70;99.90;;;;;;5046610;23;20181;-95
2024/01/27 07:45:21;;;;;;;8.93;2.27;;;1.80;99.90;;;;;;5023121;23;20151;-93
2024/01/27 07:47:22;;;;;;;3.77;1.60;;;1.80;99.90;;;;;;5022997;23;20178;-93
2024/01/27 07:49:23;;;;;;;2.87;1.57;;;1.80;99.90;;;;;;5024122;23;20161;-95
2024/01/27 07:51:26;;;;;;;12.20;2.17;;;1.80;99.90;;;;;;5027052;23;20174;-95
2024/01/27 07:53:43;;;;;;;;;;;;;;;;;;;;;
2024/01/27 07:55:57;;;;;;;;;;;;;;;;;;;;;
2024/01/27 08:02:38;;;;;;;6.00;2.27;;;1.90;99.90;;;;;;5054347;23;20173;-96
2024/01/27 08:05:56;;;;;;;;;;;;;;;;;;;;;
2024/01/27 08:08:32;;;;;;;2.33;1.80;;;2.10;99.90;;;;;;5048191;23;20197;-96
2024/01/27 08:24:43;;;;;;;;;;;;;;;;;;;;;
2024/01/27 08:38:40;;;;;;;6.17;2.70;;;3.70;99.90;;;;;;5073002;23;20710;-95
2024/01/27 08:41:17;;;;;;;;;;;;;;;;;;;;;
2024/01/27 09:16:35;;;;;;;;;;;;;;;;;;;;;
2024/01/27 09:18:36;;;;;;;3.03;1.33;;;4.60;99.90;;;;;;5019678;23;20607;-94
2024/01/27 09:21:06;;;;;;;5.70;1.77;;;4.20;99.90;;;;;;5001524;23;20152;-94
2024/01/27 09:27:02;;;;;;;;;;;;;;;;;;;;;
2024/01/27 09:40:11;;;;;;;15.20;1.93;;;5.10;99.90;;;;;;4895135;24;20186;-94
2024/01/27 09:45:34;;;;;;;8.57;2.17;;;5.70;99.90;;;;;;4881674;24;20178;-96
2024/01/27 09:47:49;;;;;;;10.13;2.03;;;6.10;99.90;;;;;;4968107;23;20211;-95
2024/01/27 09:49:51;;;;;;;3.93;1.13;;;5.70;99.90;;;;;;4999288;23;20219;-92
2024/01/27 09:51:52;;;;;;;10.93;1.70;;;5.70;99.90;;;;;;5000613;23;20543;-94
2024/01/27 09:53:53;;;;;;;3.30;1.17;;;5.60;99.90;;;;;;4997714;23;20581;-95
2024/01/27 09:55:58;;;;;;;5.13;2.40;;;5.70;99.90;;;;;;4999632;23;20156;-93
2024/01/27 09:58:00;;;;;;;8.70;1.47;;;5.60;99.90;;;;;;5022936;23;20507;-96
2024/01/27 10:00:03;;;;;;;8.47;1.70;;;5.70;99.90;;;;;;5045802;23;20160;-94
2024/01/27 10:02:09;;;;;;;5.10;1.70;;;5.90;99.90;;;;;;5068760;23;20514;-94
2024/01/27 10:04:10;;;;;;;9.50;2.17;;;5.90;99.90;;;;;;5044799;23;20590;-94
2024/01/27 10:06:11;;;;;;;1.60;0.63;;;5.80;99.90;;;;;;5021260;23;20673;-94
2024/01/27 10:08:12;;;;;;;7.33;2.33;;;5.80;99.90;;;;;;5020904;23;20151;-93
2024/01/27 10:10:13;;;;;;;7.57;2.40;;;5.80;99.90;;;;;;5025904;23;20167;-93
2024/01/27 10:12:15;;;;;;;18.20;2.27;;;6.00;99.90;;;;;;5046567;23;20178;-93
2024/01/27 10:14:16;;;;;;;4.00;1.63;;;6.20;99.90;;;;;;5022047;23;20242;-93
2024/01/27 10:16:17;;;;;;;12.90;2.30;;;6.40;99.90;;;;;;5021400;23;20167;-95
2024/01/27 10:18:18;;;;;;;9.87;2.13;;;6.40;99.90;;;;;;5044786;23;20276;-93
2024/01/27 10:20:19;;;;;;;3.60;1.40;;;6.30;99.90;;;;;;5045570;23;20225;-93
2024/01/27 10:22:20;;;;;;;8.23;2.60;;;6.10;99.90;;;;;;5023162;23;20161;-96
2024/01/27 10:24:22;;;;;;;6.63;2.37;;;6.00;99.90;;;;;;5022583;23;20154;-94
2024/01/27 10:26:23;;;;;;;5.53;1.73;;;6.10;99.90;;;;;;5070115;23;20166;-93
2024/01/27 10:28:23;;;;;;;5.30;1.80;;;6.10;99.90;;;;;;5023641;23;20151;-93
2024/01/27 10:30:24;;;;;;;6.77;1.57;;;6.20;99.90;;;;;;5046468;23;20213;-94
2024/01/27 10:32:25;;;;;;;7.50;2.00;;;6.30;99.90;;;;;;5021168;23;20175;-93
2024/01/27 10:34:26;;;;;;;19.23;2.67;;;6.50;99.90;;;;;;5021121;23;20162;-95
2024/01/27 10:36:39;;;;;;;6.63;1.30;;;6.70;99.90;;;;;;5046367;23;20178;-95
2024/01/27 10:38:40;;;;;;;13.95;1.80;;;6.70;99.90;;;;;;5020563;23;20186;-94
2024/01/27 10:40:41;;;;;;;8.87;1.80;;;7.00;99.90;;;;;;5022446;23;20170;-95
2024/01/27 10:42:44;;;;;;;4.60;1.40;;;7.20;99.90;;;;;;5045160;23;20182;-95
2024/01/27 10:44:48;;;;;;;10.53;1.93;;;7.50;99.90;;;;;;5046006;23;20179;-94
2024/01/27 10:46:49;;;;;;;3.30;1.20;;;7.30;99.90;;;;;;5021345;23;20262;-93
2024/01/27 10:48:54;;;;;;;3.27;1.23;;;7.30;99.90;;;;;;5046561;23;20170;-96
2024/01/27 10:50:55;;;;;;;8.77;1.90;;;7.10;99.90;;;;;;5047665;23;20250;-95
2024/01/27 10:52:58;;;;;;;11.00;2.37;;;7.00;99.90;;;;;;5049039;23;20182;-93
2024/01/27 10:55:06;;;;;;;4.50;1.73;;;7.20;99.90;;;;;;5045945;23;20581;-94
2024/01/27 10:57:09;;;;;;;8.30;1.30;;;7.30;99.90;;;;;;5045358;23;20169;-95
2024/01/27 10:59:13;;;;;;;2.80;1.47;;;7.20;99.90;;;;;;5045416;23;20156;-93
2024/01/27 11:01:17;;;;;;;7.37;1.57;;;7.20;99.90;;;;;;5045512;23;20147;-94
2024/01/27 11:03:19;;;;;;;6.37;2.23;;;7.50;99.90;;;;;;5045372;23;20163;-93
2024/01/27 11:05:21;;;;;;;10.55;1.60;;;7.40;99.90;;;;;;5045012;23;20485;-94
2024/01/27 11:07:23;;;;;;;6.07;1.05;;;7.40;99.90;;;;;;5044847;23;20233;-92
2024/01/27 11:09:24;;;;;;;7.28;1.92;;;7.50;99.90;;;;;;5044951;23;20237;-94
2024/01/27 11:11:26;;;;;;;9.10;1.93;;;7.50;99.90;;;;;;5044908;23;20157;-92
2024/01/27 11:13:29;;;;;;;7.38;1.95;;;7.70;99.90;;;;;;5044654;23;20567;-95
2024/01/27 11:15:30;;;;;;;9.57;2.43;;;7.70;99.90;;;;;;5045278;23;20570;-94
2024/01/27 11:17:45;;;;;;;10.23;1.87;;;7.70;99.90;;;;;;5022677;23;20198;-96
2024/01/27 11:19:50;;;;;;;3.83;1.17;;;7.90;99.90;;;;;;5022558;23;20234;-95
2024/01/27 11:22:04;;;;;;;6.70;1.05;;;8.00;99.90;;;;;;5022509;23;20162;-96
2024/01/27 11:24:18;;;;;;;8.63;2.03;;;8.20;99.90;;;;;;5045931;23;20153;-94
2024/01/27 11:26:22;;;;;;;2.92;1.65;;;8.20;99.90;;;;;;5045062;23;20194;-95
2024/01/27 11:28:31;;;;;;;6.57;1.23;;;8.30;99.90;;;;;;5045754;23;20158;-94
2024/01/27 11:30:37;;;;;;;5.82;1.48;;;8.40;99.90;;;;;;5048809;23;20150;-95
2024/01/27 11:32:38;;;;;;;7.70;1.17;;;8.20;99.90;;;;;;5023820;23;20222;-94
2024/01/27 11:34:45;;;;;;;9.45;1.58;;;8.10;99.90;;;;;;5023668;23;20566;-95
2024/01/27 11:36:51;;;;;;;4.20;1.63;;;8.00;99.90;;;;;;5023507;23;20188;-94
2024/01/27 11:38:56;;;;;;;7.22;1.65;;;8.10;99.90;;;;;;5023037;23;20637;-96
2024/01/27 11:41:22;;;;;;;6.32;1.85;;;8.10;99.90;;;;;;5048852;23;20240;-96
2024/01/27 11:43:23;;;;;;;6.32;1.40;;;8.30;99.90;;;;;;5022726;23;20159;-93
2024/01/27 11:45:24;;;;;;;6.93;1.55;;;8.60;99.90;;;;;;5050125;23;20628;-95
2024/01/27 11:47:26;;;;;;;6.88;1.73;;;8.70;99.90;;;;;;5023579;23;20495;-96
2024/01/27 11:49:31;;;;;;;8.65;1.80;;;8.80;99.90;;;;;;5048051;23;20166;-94
2024/01/27 11:51:34;;;;;;;9.32;0.90;;;8.90;99.90;;;;;;5047708;23;20154;-95
2024/01/27 11:53:35;;;;;;;5.45;1.42;;;8.90;99.90;;;;;;5022319;23;20238;-95
2024/01/27 11:55:36;;;;;;;17.63;1.80;;;8.70;99.90;;;;;;5049415;23;20147;-96
2024/01/27 11:57:37;;;;;;;9.32;1.52;;;8.70;99.90;;;;;;5047928;23;20273;-94
2024/01/27 11:59:40;;;;;;;11.48;1.08;;;8.90;99.90;;;;;;5025723;23;20507;-94
2024/01/27 12:01:42;;;;;;;5.95;1.48;;;9.00;99.90;;;;;;5071657;23;20154;-96
2024/01/27 12:03:43;;;;;;;4.45;0.90;;;9.00;99.90;;;;;;5046799;23;20497;-94
2024/01/27 12:05:49;;;;;;;2.38;0.60;;;8.80;99.90;;;;;;5048076;23;20154;-96
2024/01/27 12:07:51;;;;;;;2.53;0.80;;;8.90;99.90;;;;;;5048676;23;20147;-93
2024/01/27 12:09:52;;;;;;;5.45;1.63;;;8.80;99.90;;;;;;5026243;23;20629;-94
2024/01/27 12:11:53;;;;;;;3.65;0.90;;;8.90;99.90;;;;;;5001941;23;20282;-96
2024/01/27 12:13:57;;;;;;;9.30;1.02;;;9.00;99.90;;;;;;5026631;23;20209;-95
2024/01/27 12:15:58;;;;;;;4.60;1.15;;;9.00;99.90;;;;;;5026263;23;20155;-94
2024/01/27 12:17:59;;;;;;;10.18;1.42;;;9.00;99.90;;;;;;5025355;23;20274;-95
2024/01/27 12:20:18;;;;;;;3.28;0.90;;;9.00;99.90;;;;;;5025650;23;20571;-95
2024/01/27 12:22:27;;;;;;;9.98;1.80;;;9.10;99.90;;;;;;5047786;23;20557;-96
2024/01/27 12:24:28;;;;;;;4.15;1.05;;;9.30;99.90;;;;;;5049626;23;20191;-94
2024/01/27 12:26:31;;;;;;;2.95;0.90;;;9.50;99.90;;;;;;5027618;23;20182;-95
2024/01/27 12:28:37;;;;;;;1.42;0.68;;;9.70;99.90;;;;;;5051706;23;20174;-96
2024/01/27 12:30:38;;;;;;;1.73;0.80;;;9.60;99.90;;;;;;5047746;23;20233;-95
2024/01/27 12:32:39;;;;;;;2.78;0.50;;;9.70;99.90;;;;;;5024443;23;20470;-96